sensor_id;sensor_type;location;lat;lon;timestamp;temperature;humidity
57636;DHT22;43465;50.728;4.160;2022-07-04T00:00:10;17.30;97.60
57636;DHT22;43465;50.728;4.160;2022-07-04T00:02:37;17.30;98.10
57636;DHT22;43465;50.728;4.160;2022-07-04T00:05:04;17.20;98.30
57636;DHT22;43465;50.728;4.160;2022-07-04T00:07:29;17.20;98.50
57636;DHT22;43465;50.728;4.160;2022-07-04T00:09:55;17.10;98.60
57636;DHT22;43465;50.728;4.160;2022-07-04T00:12:21;17.10;98.30
57636;DHT22;43465;50.728;4.160;2022-07-04T00:14:47;17.10;98.40
57636;DHT22;43465;50.728;4.160;2022-07-04T00:17:12;17.10;98.20
57636;DHT22;43465;50.728;4.160;2022-07-04T00:19:38;17.00;98.10
57636;DHT22;43465;50.728;4.160;2022-07-04T00:22:04;17.00;98.30
57636;DHT22;43465;50.728;4.160;2022-07-04T00:24:30;17.00;98.50
57636;DHT22;43465;50.728;4.160;2022-07-04T00:26:55;16.90;98.50
57636;DHT22;43465;50.728;4.160;2022-07-04T00:29:21;16.90;99.00
57636;DHT22;43465;50.728;4.160;2022-07-04T00:31:46;16.90;99.20
57636;DHT22;43465;50.728;4.160;2022-07-04T00:34:12;16.80;99.50
57636;DHT22;43465;50.728;4.160;2022-07-04T00:36:38;16.80;99.40
57636;DHT22;43465;50.728;4.160;2022-07-04T00:39:03;16.80;99.30
57636;DHT22;43465;50.728;4.160;2022-07-04T00:41:29;16.80;99.10
57636;DHT22;43465;50.728;4.160;2022-07-04T00:46:31;16.80;99.10
57636;DHT22;43465;50.728;4.160;2022-07-04T00:48:57;16.70;99.10
57636;DHT22;43465;50.728;4.160;2022-07-04T00:51:23;16.70;99.10
57636;DHT22;43465;50.728;4.160;2022-07-04T00:53:50;16.70;99.30
57636;DHT22;43465;50.728;4.160;2022-07-04T00:56:16;16.70;99.50
57636;DHT22;43465;50.728;4.160;2022-07-04T00:58:42;16.70;99.60
57636;DHT22;43465;50.728;4.160;2022-07-04T01:01:07;16.70;99.80
57636;DHT22;43465;50.728;4.160;2022-07-04T01:03:33;16.60;99.60
57636;DHT22;43465;50.728;4.160;2022-07-04T01:06:00;16.60;99.60
57636;DHT22;43465;50.728;4.160;2022-07-04T01:08:26;16.60;99.40
57636;DHT22;43465;50.728;4.160;2022-07-04T01:10:52;16.50;99.50
57636;DHT22;43465;50.728;4.160;2022-07-04T01:13:24;16.50;99.50
57636;DHT22;43465;50.728;4.160;2022-07-04T01:15:50;16.50;99.50
57636;DHT22;43465;50.728;4.160;2022-07-04T01:18:17;16.40;99.40
57636;DHT22;43465;50.728;4.160;2022-07-04T01:20:43;16.40;99.50
57636;DHT22;43465;50.728;4.160;2022-07-04T01:23:09;16.40;99.90
57636;DHT22;43465;50.728;4.160;2022-07-04T01:25:35;16.40;99.90
57636;DHT22;43465;50.728;4.160;2022-07-04T01:28:01;16.30;99.90
57636;DHT22;43465;50.728;4.160;2022-07-04T01:30:28;16.30;99.90
57636;DHT22;43465;50.728;4.160;2022-07-04T01:32:54;16.30;99.90
57636;DHT22;43465;50.728;4.160;2022-07-04T01:35:20;16.20;99.90
57636;DHT22;43465;50.728;4.160;2022-07-04T01:37:46;16.20;99.90
57636;DHT22;43465;50.728;4.160;2022-07-04T01:40:12;16.30;99.90
57636;DHT22;43465;50.728;4.160;2022-07-04T01:42:41;16.30;99.90
57636;DHT22;43465;50.728;4.160;2022-07-04T01:45:08;16.20;99.90
57636;DHT22;43465;50.728;4.160;2022-07-04T01:47:34;16.20;99.80
57636;DHT22;43465;50.728;4.160;2022-07-04T01:50:00;16.20;99.90
57636;DHT22;43465;50.728;4.160;2022-07-04T01:52:26;16.20;99.90
57636;DHT22;43465;50.728;4.160;2022-07-04T01:54:52;16.20;99.90
57636;DHT22;43465;50.728;4.160;2022-07-04T01:57:17;16.10;99.90
57636;DHT22;43465;50.728;4.160;2022-07-04T01:59:43;16.10;99.90
57636;DHT22;43465;50.728;4.160;2022-07-04T02:02:28;16.10;99.90
57636;DHT22;43465;50.728;4.160;2022-07-04T02:04:54;16.10;99.90
57636;DHT22;43465;50.728;4.160;2022-07-04T02:07:20;16.10;99.90
57636;DHT22;43465;50.728;4.160;2022-07-04T02:09:46;16.00;99.90
57636;DHT22;43465;50.728;4.160;2022-07-04T02:12:12;16.00;99.90
57636;DHT22;43465;50.728;4.160;2022-07-04T02:14:56;15.90;99.80
57636;DHT22;43465;50.728;4.160;2022-07-04T02:17:21;15.80;99.80
57636;DHT22;43465;50.728;4.160;2022-07-04T02:19:47;15.80;99.90
57636;DHT22;43465;50.728;4.160;2022-07-04T02:22:14;15.80;99.90
57636;DHT22;43465;50.728;4.160;2022-07-04T02:24:40;15.70;99.90
57636;DHT22;43465;50.728;4.160;2022-07-04T02:27:06;15.70;99.90
57636;DHT22;43465;50.728;4.160;2022-07-04T02:29:31;15.70;99.90
57636;DHT22;43465;50.728;4.160;2022-07-04T02:31:57;15.70;99.90
57636;DHT22;43465;50.728;4.160;2022-07-04T02:34:23;15.70;99.90
57636;DHT22;43465;50.728;4.160;2022-07-04T02:36:48;15.70;99.90
57636;DHT22;43465;50.728;4.160;2022-07-04T02:39:14;15.60;99.90
57636;DHT22;43465;50.728;4.160;2022-07-04T02:41:40;15.60;99.90
57636;DHT22;43465;50.728;4.160;2022-07-04T02:44:06;15.60;99.90
57636;DHT22;43465;50.728;4.160;2022-07-04T02:46:31;15.60;99.90
57636;DHT22;43465;50.728;4.160;2022-07-04T02:49:00;15.60;99.90
57636;DHT22;43465;50.728;4.160;2022-07-04T02:51:26;15.50;99.90
57636;DHT22;43465;50.728;4.160;2022-07-04T02:53:52;15.60;99.90
57636;DHT22;43465;50.728;4.160;2022-07-04T02:56:18;15.60;99.90
57636;DHT22;43465;50.728;4.160;2022-07-04T02:58:44;15.50;99.90
57636;DHT22;43465;50.728;4.160;2022-07-04T03:01:10;15.50;99.90
57636;DHT22;43465;50.728;4.160;2022-07-04T03:03:38;15.50;99.90
57636;DHT22;43465;50.728;4.160;2022-07-04T03:06:04;15.50;99.90
57636;DHT22;43465;50.728;4.160;2022-07-04T03:08:30;15.40;99.90
57636;DHT22;43465;50.728;4.160;2022-07-04T03:10:55;15.40;99.90
57636;DHT22;43465;50.728;4.160;2022-07-04T03:13:21;15.40;99.90
57636;DHT22;43465;50.728;4.160;2022-07-04T03:15:47;15.40;99.90
57636;DHT22;43465;50.728;4.160;2022-07-04T03:18:12;15.30;99.90
57636;DHT22;43465;50.728;4.160;2022-07-04T03:20:38;15.30;99.90
57636;DHT22;43465;50.728;4.160;2022-07-04T03:23:04;15.30;99.90
57636;DHT22;43465;50.728;4.160;2022-07-04T03:25:29;15.20;99.90
57636;DHT22;43465;50.728;4.160;2022-07-04T03:27:55;15.20;99.90
57636;DHT22;43465;50.728;4.160;2022-07-04T03:30:21;15.10;99.90
57636;DHT22;43465;50.728;4.160;2022-07-04T03:32:46;15.10;99.90
57636;DHT22;43465;50.728;4.160;2022-07-04T03:35:12;15.00;99.90
57636;DHT22;43465;50.728;4.160;2022-07-04T03:37:38;15.00;99.90
57636;DHT22;43465;50.728;4.160;2022-07-04T03:40:04;15.00;99.90
57636;DHT22;43465;50.728;4.160;2022-07-04T03:42:30;14.90;99.90
57636;DHT22;43465;50.728;4.160;2022-07-04T03:44:55;14.90;99.90
57636;DHT22;43465;50.728;4.160;2022-07-04T03:47:22;14.90;99.90
57636;DHT22;43465;50.728;4.160;2022-07-04T03:49:48;14.90;99.90
57636;DHT22;43465;50.728;4.160;2022-07-04T03:52:14;14.90;99.90
57636;DHT22;43465;50.728;4.160;2022-07-04T03:54:39;14.90;99.90
57636;DHT22;43465;50.728;4.160;2022-07-04T03:57:05;14.90;99.90
57636;DHT22;43465;50.728;4.160;2022-07-04T03:59:31;14.90;99.90
57636;DHT22;43465;50.728;4.160;2022-07-04T04:01:56;14.80;99.90
57636;DHT22;43465;50.728;4.160;2022-07-04T04:04:22;14.90;99.90
57636;DHT22;43465;50.728;4.160;2022-07-04T04:07:06;14.80;99.90
57636;DHT22;43465;50.728;4.160;2022-07-04T04:09:32;14.80;99.90
57636;DHT22;43465;50.728;4.160;2022-07-04T04:11:58;14.80;99.90
57636;DHT22;43465;50.728;4.160;2022-07-04T04:14:23;14.80;99.90
57636;DHT22;43465;50.728;4.160;2022-07-04T04:16:50;14.80;99.90
57636;DHT22;43465;50.728;4.160;2022-07-04T04:19:16;14.80;99.90
57636;DHT22;43465;50.728;4.160;2022-07-04T04:21:41;14.80;99.90
57636;DHT22;43465;50.728;4.160;2022-07-04T04:24:07;14.80;99.90
57636;DHT22;43465;50.728;4.160;2022-07-04T04:26:33;14.80;99.90
57636;DHT22;43465;50.728;4.160;2022-07-04T04:28:59;14.80;99.90
57636;DHT22;43465;50.728;4.160;2022-07-04T04:31:25;14.80;99.90
57636;DHT22;43465;50.728;4.160;2022-07-04T04:33:51;14.90;99.90
57636;DHT22;43465;50.728;4.160;2022-07-04T04:36:17;14.90;99.90
57636;DHT22;43465;50.728;4.160;2022-07-04T04:38:43;14.90;99.90
57636;DHT22;43465;50.728;4.160;2022-07-04T04:41:08;15.00;99.90
57636;DHT22;43465;50.728;4.160;2022-07-04T04:43:34;15.00;99.90
57636;DHT22;43465;50.728;4.160;2022-07-04T04:45:59;15.00;99.90
57636;DHT22;43465;50.728;4.160;2022-07-04T04:48:25;15.00;99.90
57636;DHT22;43465;50.728;4.160;2022-07-04T04:50:51;15.10;99.90
57636;DHT22;43465;50.728;4.160;2022-07-04T04:53:16;15.10;99.90
57636;DHT22;43465;50.728;4.160;2022-07-04T04:55:42;15.20;99.90
57636;DHT22;43465;50.728;4.160;2022-07-04T04:58:08;15.30;99.90
57636;DHT22;43465;50.728;4.160;2022-07-04T05:00:34;15.30;99.90
57636;DHT22;43465;50.728;4.160;2022-07-04T05:02:59;15.40;99.90
57636;DHT22;43465;50.728;4.160;2022-07-04T05:05:25;15.40;99.90
57636;DHT22;43465;50.728;4.160;2022-07-04T05:07:50;15.50;99.90
57636;DHT22;43465;50.728;4.160;2022-07-04T05:10:16;15.60;99.90
57636;DHT22;43465;50.728;4.160;2022-07-04T05:12:43;15.70;99.90
57636;DHT22;43465;50.728;4.160;2022-07-04T05:15:09;15.80;99.90
57636;DHT22;43465;50.728;4.160;2022-07-04T05:17:35;15.80;99.90
57636;DHT22;43465;50.728;4.160;2022-07-04T05:20:01;15.90;99.90
57636;DHT22;43465;50.728;4.160;2022-07-04T05:22:27;16.00;99.90
57636;DHT22;43465;50.728;4.160;2022-07-04T05:24:52;16.00;99.90
57636;DHT22;43465;50.728;4.160;2022-07-04T05:27:18;16.00;99.90
57636;DHT22;43465;50.728;4.160;2022-07-04T05:29:43;15.90;99.90
57636;DHT22;43465;50.728;4.160;2022-07-04T05:32:09;15.80;99.90
57636;DHT22;43465;50.728;4.160;2022-07-04T05:34:35;15.70;99.90
57636;DHT22;43465;50.728;4.160;2022-07-04T05:37:01;15.60;99.90
57636;DHT22;43465;50.728;4.160;2022-07-04T05:39:27;15.50;99.90
57636;DHT22;43465;50.728;4.160;2022-07-04T05:41:54;15.40;99.90
57636;DHT22;43465;50.728;4.160;2022-07-04T05:44:19;15.40;99.90
57636;DHT22;43465;50.728;4.160;2022-07-04T05:46:45;15.40;99.90
57636;DHT22;43465;50.728;4.160;2022-07-04T05:49:11;15.30;99.90
57636;DHT22;43465;50.728;4.160;2022-07-04T05:51:36;15.40;99.90
57636;DHT22;43465;50.728;4.160;2022-07-04T05:54:02;15.40;99.90
57636;DHT22;43465;50.728;4.160;2022-07-04T05:56:28;15.40;99.90
57636;DHT22;43465;50.728;4.160;2022-07-04T05:58:53;15.40;99.90
57636;DHT22;43465;50.728;4.160;2022-07-04T06:01:19;15.40;99.90
57636;DHT22;43465;50.728;4.160;2022-07-04T06:03:45;15.50;99.90
57636;DHT22;43465;50.728;4.160;2022-07-04T06:06:11;15.60;99.90
57636;DHT22;43465;50.728;4.160;2022-07-04T06:08:37;15.80;99.90
57636;DHT22;43465;50.728;4.160;2022-07-04T06:11:03;15.90;99.90
57636;DHT22;43465;50.728;4.160;2022-07-04T06:13:29;16.00;99.90
57636;DHT22;43465;50.728;4.160;2022-07-04T06:15:55;16.00;99.90
57636;DHT22;43465;50.728;4.160;2022-07-04T06:18:21;16.10;99.90
57636;DHT22;43465;50.728;4.160;2022-07-04T06:20:46;16.10;99.90
57636;DHT22;43465;50.728;4.160;2022-07-04T06:23:12;16.20;99.90
57636;DHT22;43465;50.728;4.160;2022-07-04T06:25:38;16.30;99.90
57636;DHT22;43465;50.728;4.160;2022-07-04T06:28:04;16.50;99.90
57636;DHT22;43465;50.728;4.160;2022-07-04T06:30:29;16.60;99.90
57636;DHT22;43465;50.728;4.160;2022-07-04T06:32:57;16.80;99.90
57636;DHT22;43465;50.728;4.160;2022-07-04T06:35:25;16.90;99.90
57636;DHT22;43465;50.728;4.160;2022-07-04T06:38:11;17.10;99.90
57636;DHT22;43465;50.728;4.160;2022-07-04T06:40:37;17.20;99.90
57636;DHT22;43465;50.728;4.160;2022-07-04T06:43:04;17.20;99.90
57636;DHT22;43465;50.728;4.160;2022-07-04T06:45:30;17.40;99.90
57636;DHT22;43465;50.728;4.160;2022-07-04T06:47:56;17.40;99.90
57636;DHT22;43465;50.728;4.160;2022-07-04T06:50:22;17.50;99.90
57636;DHT22;43465;50.728;4.160;2022-07-04T06:52:48;17.50;99.90
57636;DHT22;43465;50.728;4.160;2022-07-04T06:55:14;17.60;99.90
57636;DHT22;43465;50.728;4.160;2022-07-04T06:57:40;17.70;99.90
57636;DHT22;43465;50.728;4.160;2022-07-04T07:00:07;17.80;99.90
57636;DHT22;43465;50.728;4.160;2022-07-04T07:02:37;17.80;99.90
57636;DHT22;43465;50.728;4.160;2022-07-04T07:05:04;17.90;99.90
57636;DHT22;43465;50.728;4.160;2022-07-04T07:07:29;17.90;99.90
57636;DHT22;43465;50.728;4.160;2022-07-04T07:09:56;18.00;99.90
57636;DHT22;43465;50.728;4.160;2022-07-04T07:12:22;18.00;99.90
57636;DHT22;43465;50.728;4.160;2022-07-04T07:14:49;18.10;99.90
57636;DHT22;43465;50.728;4.160;2022-07-04T07:17:15;18.30;99.90
57636;DHT22;43465;50.728;4.160;2022-07-04T07:19:45;18.50;99.90
57636;DHT22;43465;50.728;4.160;2022-07-04T07:22:11;18.80;99.90
57636;DHT22;43465;50.728;4.160;2022-07-04T07:24:37;18.90;99.90
57636;DHT22;43465;50.728;4.160;2022-07-04T07:27:03;19.10;99.90
57636;DHT22;43465;50.728;4.160;2022-07-04T07:29:29;19.20;99.90
57636;DHT22;43465;50.728;4.160;2022-07-04T07:31:55;19.30;99.90
57636;DHT22;43465;50.728;4.160;2022-07-04T07:34:21;19.50;99.90
57636;DHT22;43465;50.728;4.160;2022-07-04T07:36:46;19.70;99.90
57636;DHT22;43465;50.728;4.160;2022-07-04T07:39:12;19.80;99.90
57636;DHT22;43465;50.728;4.160;2022-07-04T07:41:38;19.90;99.90
57636;DHT22;43465;50.728;4.160;2022-07-04T07:44:03;20.00;99.90
57636;DHT22;43465;50.728;4.160;2022-07-04T07:46:29;20.10;99.90
57636;DHT22;43465;50.728;4.160;2022-07-04T07:48:55;20.10;99.90
57636;DHT22;43465;50.728;4.160;2022-07-04T07:51:20;20.20;99.90
57636;DHT22;43465;50.728;4.160;2022-07-04T07:53:46;20.30;99.90
57636;DHT22;43465;50.728;4.160;2022-07-04T07:56:11;20.40;99.90
57636;DHT22;43465;50.728;4.160;2022-07-04T07:58:38;20.40;99.40
57636;DHT22;43465;50.728;4.160;2022-07-04T08:01:04;20.50;99.70
57636;DHT22;43465;50.728;4.160;2022-07-04T08:03:30;20.60;99.50
57636;DHT22;43465;50.728;4.160;2022-07-04T08:06:15;20.70;99.20
57636;DHT22;43465;50.728;4.160;2022-07-04T08:08:41;20.80;98.40
57636;DHT22;43465;50.728;4.160;2022-07-04T08:11:07;20.90;98.90
57636;DHT22;43465;50.728;4.160;2022-07-04T08:13:33;20.90;98.40
57636;DHT22;43465;50.728;4.160;2022-07-04T08:15:59;21.00;97.90
57636;DHT22;43465;50.728;4.160;2022-07-04T08:18:25;21.10;97.80
57636;DHT22;43465;50.728;4.160;2022-07-04T08:20:50;21.10;98.20
57636;DHT22;43465;50.728;4.160;2022-07-04T08:23:16;21.20;97.80
57636;DHT22;43465;50.728;4.160;2022-07-04T08:25:42;21.20;96.60
57636;DHT22;43465;50.728;4.160;2022-07-04T08:28:08;21.40;97.70
57636;DHT22;43465;50.728;4.160;2022-07-04T08:30:33;21.40;97.80
57636;DHT22;43465;50.728;4.160;2022-07-04T08:32:59;21.50;96.30
57636;DHT22;43465;50.728;4.160;2022-07-04T08:35:25;21.60;96.20
57636;DHT22;43465;50.728;4.160;2022-07-04T08:37:51;21.70;95.70
57636;DHT22;43465;50.728;4.160;2022-07-04T08:40:21;21.80;94.60
57636;DHT22;43465;50.728;4.160;2022-07-04T08:42:48;21.90;95.60
57636;DHT22;43465;50.728;4.160;2022-07-04T08:45:16;21.90;93.90
57636;DHT22;43465;50.728;4.160;2022-07-04T08:47:43;22.00;94.70
57636;DHT22;43465;50.728;4.160;2022-07-04T08:50:10;22.00;95.20
57636;DHT22;43465;50.728;4.160;2022-07-04T08:52:41;22.10;94.40
57636;DHT22;43465;50.728;4.160;2022-07-04T08:55:09;22.10;93.30
57636;DHT22;43465;50.728;4.160;2022-07-04T08:57:55;22.10;93.80
57636;DHT22;43465;50.728;4.160;2022-07-04T09:00:39;22.20;93.10
57636;DHT22;43465;50.728;4.160;2022-07-04T09:03:05;22.20;92.90
57636;DHT22;43465;50.728;4.160;2022-07-04T09:05:32;22.30;93.70
57636;DHT22;43465;50.728;4.160;2022-07-04T09:07:59;22.40;92.40
57636;DHT22;43465;50.728;4.160;2022-07-04T09:10:29;22.50;92.60
57636;DHT22;43465;50.728;4.160;2022-07-04T09:12:55;22.60;92.90
57636;DHT22;43465;50.728;4.160;2022-07-04T09:15:21;22.70;91.30
57636;DHT22;43465;50.728;4.160;2022-07-04T09:17:47;22.70;91.40
57636;DHT22;43465;50.728;4.160;2022-07-04T09:20:18;22.80;90.50
57636;DHT22;43465;50.728;4.160;2022-07-04T09:22:45;22.80;90.50
57636;DHT22;43465;50.728;4.160;2022-07-04T09:25:11;22.90;91.30
57636;DHT22;43465;50.728;4.160;2022-07-04T09:27:42;23.00;88.30
57636;DHT22;43465;50.728;4.160;2022-07-04T09:30:11;23.00;90.40
57636;DHT22;43465;50.728;4.160;2022-07-04T09:35:09;23.10;90.50
57636;DHT22;43465;50.728;4.160;2022-07-04T09:37:42;23.20;91.50
57636;DHT22;43465;50.728;4.160;2022-07-04T09:40:20;23.20;91.60
57636;DHT22;43465;50.728;4.160;2022-07-04T09:42:45;23.30;91.30
57636;DHT22;43465;50.728;4.160;2022-07-04T09:45:11;23.40;90.80
57636;DHT22;43465;50.728;4.160;2022-07-04T09:47:39;23.40;90.30
57636;DHT22;43465;50.728;4.160;2022-07-04T09:52:32;23.60;89.80
57636;DHT22;43465;50.728;4.160;2022-07-04T09:55:08;23.60;88.30
57636;DHT22;43465;50.728;4.160;2022-07-04T09:57:34;23.70;90.00
57636;DHT22;43465;50.728;4.160;2022-07-04T10:00:17;23.80;90.00
57636;DHT22;43465;50.728;4.160;2022-07-04T10:02:43;23.90;89.00
57636;DHT22;43465;50.728;4.160;2022-07-04T10:05:09;24.00;89.50
57636;DHT22;43465;50.728;4.160;2022-07-04T10:07:38;24.00;89.30
57636;DHT22;43465;50.728;4.160;2022-07-04T10:10:25;24.10;88.30
57636;DHT22;43465;50.728;4.160;2022-07-04T10:12:52;24.30;88.80
57636;DHT22;43465;50.728;4.160;2022-07-04T10:15:19;24.30;86.30
57636;DHT22;43465;50.728;4.160;2022-07-04T10:17:45;24.30;87.30
57636;DHT22;43465;50.728;4.160;2022-07-04T10:20:14;24.40;89.00
57636;DHT22;43465;50.728;4.160;2022-07-04T10:22:40;24.40;84.00
57636;DHT22;43465;50.728;4.160;2022-07-04T10:25:07;24.20;81.40
57636;DHT22;43465;50.728;4.160;2022-07-04T10:27:33;24.00;81.40
57636;DHT22;43465;50.728;4.160;2022-07-04T10:30:00;24.00;86.50
57636;DHT22;43465;50.728;4.160;2022-07-04T10:32:27;23.90;88.10
57636;DHT22;43465;50.728;4.160;2022-07-04T10:34:53;23.90;81.10
57636;DHT22;43465;50.728;4.160;2022-07-04T10:37:19;23.90;82.50
57636;DHT22;43465;50.728;4.160;2022-07-04T10:39:47;23.80;81.70
57636;DHT22;43465;50.728;4.160;2022-07-04T10:42:25;23.70;81.40
57636;DHT22;43465;50.728;4.160;2022-07-04T10:44:52;23.70;81.60
57636;DHT22;43465;50.728;4.160;2022-07-04T10:47:25;23.60;84.10
57636;DHT22;43465;50.728;4.160;2022-07-04T10:49:52;23.60;89.50
57636;DHT22;43465;50.728;4.160;2022-07-04T10:52:18;23.70;88.30
57636;DHT22;43465;50.728;4.160;2022-07-04T10:54:44;24.00;89.30
57636;DHT22;43465;50.728;4.160;2022-07-04T10:57:11;24.40;86.80
57636;DHT22;43465;50.728;4.160;2022-07-04T10:59:38;24.60;85.20
57636;DHT22;43465;50.728;4.160;2022-07-04T11:20:24;24.20;80.60
57636;DHT22;43465;50.728;4.160;2022-07-04T11:22:49;24.30;77.70
57636;DHT22;43465;50.728;4.160;2022-07-04T11:25:15;24.40;81.40
57636;DHT22;43465;50.728;4.160;2022-07-04T11:27:41;24.50;82.70
57636;DHT22;43465;50.728;4.160;2022-07-04T11:30:08;24.80;82.60
57636;DHT22;43465;50.728;4.160;2022-07-04T11:32:35;25.00;83.60
57636;DHT22;43465;50.728;4.160;2022-07-04T11:35:03;25.20;83.80
57636;DHT22;43465;50.728;4.160;2022-07-04T11:37:29;25.40;79.40
57636;DHT22;43465;50.728;4.160;2022-07-04T11:39:56;25.50;80.40
57636;DHT22;43465;50.728;4.160;2022-07-04T11:42:59;25.50;78.60
57636;DHT22;43465;50.728;4.160;2022-07-04T11:45:43;25.50;82.70
57636;DHT22;43465;50.728;4.160;2022-07-04T11:48:09;25.40;76.10
57636;DHT22;43465;50.728;4.160;2022-07-04T11:50:35;25.50;82.90
57636;DHT22;43465;50.728;4.160;2022-07-04T11:53:00;25.60;82.60
57636;DHT22;43465;50.728;4.160;2022-07-04T11:55:26;25.70;76.60
57636;DHT22;43465;50.728;4.160;2022-07-04T11:57:52;25.60;77.80
57636;DHT22;43465;50.728;4.160;2022-07-04T12:00:20;25.40;76.50
57636;DHT22;43465;50.728;4.160;2022-07-04T12:02:47;25.10;77.30
57636;DHT22;43465;50.728;4.160;2022-07-04T12:05:14;24.60;80.00
57636;DHT22;43465;50.728;4.160;2022-07-04T12:07:45;24.30;78.60
57636;DHT22;43465;50.728;4.160;2022-07-04T12:10:23;24.20;79.60
57636;DHT22;43465;50.728;4.160;2022-07-04T12:13:00;24.30;78.70
57636;DHT22;43465;50.728;4.160;2022-07-04T12:15:44;24.50;83.50
57636;DHT22;43465;50.728;4.160;2022-07-04T12:20:49;25.10;82.40
57636;DHT22;43465;50.728;4.160;2022-07-04T12:23:15;25.30;81.70
57636;DHT22;43465;50.728;4.160;2022-07-04T12:25:45;25.40;76.70
57636;DHT22;43465;50.728;4.160;2022-07-04T12:28:12;25.50;79.30
57636;DHT22;43465;50.728;4.160;2022-07-04T12:33:20;25.50;82.40
57636;DHT22;43465;50.728;4.160;2022-07-04T12:35:50;25.50;80.50
57636;DHT22;43465;50.728;4.160;2022-07-04T12:38:41;25.70;80.20
57636;DHT22;43465;50.728;4.160;2022-07-04T12:41:12;25.80;78.90
57636;DHT22;43465;50.728;4.160;2022-07-04T12:46:31;26.20;78.80
57636;DHT22;43465;50.728;4.160;2022-07-04T12:49:01;26.40;71.70
57636;DHT22;43465;50.728;4.160;2022-07-04T12:51:31;26.40;73.00
57636;DHT22;43465;50.728;4.160;2022-07-04T12:53:58;26.20;75.50
57636;DHT22;43465;50.728;4.160;2022-07-04T12:56:35;26.10;73.30
57636;DHT22;43465;50.728;4.160;2022-07-04T13:01:29;25.60;75.40
57636;DHT22;43465;50.728;4.160;2022-07-04T13:03:55;25.60;75.90
57636;DHT22;43465;50.728;4.160;2022-07-04T13:06:21;25.70;73.60
57636;DHT22;43465;50.728;4.160;2022-07-04T13:08:47;25.90;75.50
57636;DHT22;43465;50.728;4.160;2022-07-04T13:11:12;26.00;72.00
57636;DHT22;43465;50.728;4.160;2022-07-04T13:13:57;26.10;77.60
57636;DHT22;43465;50.728;4.160;2022-07-04T13:16:22;26.20;71.20
57636;DHT22;43465;50.728;4.160;2022-07-04T13:18:48;26.20;69.30
57636;DHT22;43465;50.728;4.160;2022-07-04T13:21:14;26.20;70.50
57636;DHT22;43465;50.728;4.160;2022-07-04T13:23:40;26.20;73.40
57636;DHT22;43465;50.728;4.160;2022-07-04T13:26:08;26.30;72.90
57636;DHT22;43465;50.728;4.160;2022-07-04T13:28:34;26.20;67.10
57636;DHT22;43465;50.728;4.160;2022-07-04T13:31:00;26.10;69.10
57636;DHT22;43465;50.728;4.160;2022-07-04T13:33:27;26.00;72.60
57636;DHT22;43465;50.728;4.160;2022-07-04T13:35:53;26.00;70.30
57636;DHT22;43465;50.728;4.160;2022-07-04T13:38:19;26.00;72.50
57636;DHT22;43465;50.728;4.160;2022-07-04T13:40:45;26.10;75.20
57636;DHT22;43465;50.728;4.160;2022-07-04T13:43:11;26.20;69.30
57636;DHT22;43465;50.728;4.160;2022-07-04T13:45:38;26.50;70.80
57636;DHT22;43465;50.728;4.160;2022-07-04T13:48:06;26.60;69.60
57636;DHT22;43465;50.728;4.160;2022-07-04T13:50:32;26.70;66.60
57636;DHT22;43465;50.728;4.160;2022-07-04T13:52:57;26.70;67.50
57636;DHT22;43465;50.728;4.160;2022-07-04T13:55:23;26.80;66.90
57636;DHT22;43465;50.728;4.160;2022-07-04T13:57:49;26.90;66.90
57636;DHT22;43465;50.728;4.160;2022-07-04T14:00:15;27.00;72.80
57636;DHT22;43465;50.728;4.160;2022-07-04T14:02:41;27.10;69.90
57636;DHT22;43465;50.728;4.160;2022-07-04T14:05:06;27.20;67.90
57636;DHT22;43465;50.728;4.160;2022-07-04T14:07:32;27.20;64.40
57636;DHT22;43465;50.728;4.160;2022-07-04T14:10:01;27.20;63.60
57636;DHT22;43465;50.728;4.160;2022-07-04T14:12:26;27.30;64.40
57636;DHT22;43465;50.728;4.160;2022-07-04T14:14:52;27.50;62.00
57636;DHT22;43465;50.728;4.160;2022-07-04T14:17:18;27.80;64.70
57636;DHT22;43465;50.728;4.160;2022-07-04T14:19:43;28.10;65.70
57636;DHT22;43465;50.728;4.160;2022-07-04T14:22:09;28.40;62.30
57636;DHT22;43465;50.728;4.160;2022-07-04T14:24:34;28.70;60.00
57636;DHT22;43465;50.728;4.160;2022-07-04T14:27:00;29.10;61.90
57636;DHT22;43465;50.728;4.160;2022-07-04T14:29:26;29.50;60.30
57636;DHT22;43465;50.728;4.160;2022-07-04T14:31:52;30.20;59.60
57636;DHT22;43465;50.728;4.160;2022-07-04T14:34:18;31.00;56.80
57636;DHT22;43465;50.728;4.160;2022-07-04T14:36:44;31.40;55.80
57636;DHT22;43465;50.728;4.160;2022-07-04T14:39:10;31.90;55.10
57636;DHT22;43465;50.728;4.160;2022-07-04T14:41:35;32.20;54.10
57636;DHT22;43465;50.728;4.160;2022-07-04T14:44:01;32.60;56.40
57636;DHT22;43465;50.728;4.160;2022-07-04T14:46:27;33.10;54.60
57636;DHT22;43465;50.728;4.160;2022-07-04T14:48:53;33.80;51.60
57636;DHT22;43465;50.728;4.160;2022-07-04T14:51:20;34.10;50.30
57636;DHT22;43465;50.728;4.160;2022-07-04T14:53:46;34.20;49.60
57636;DHT22;43465;50.728;4.160;2022-07-04T14:56:12;34.10;50.00
57636;DHT22;43465;50.728;4.160;2022-07-04T14:58:37;33.70;51.10
57636;DHT22;43465;50.728;4.160;2022-07-04T15:01:03;33.70;48.60
57636;DHT22;43465;50.728;4.160;2022-07-04T15:03:29;33.90;49.80
57636;DHT22;43465;50.728;4.160;2022-07-04T15:05:54;34.00;49.60
57636;DHT22;43465;50.728;4.160;2022-07-04T15:08:20;34.30;51.10
57636;DHT22;43465;50.728;4.160;2022-07-04T15:10:46;35.00;47.90
57636;DHT22;43465;50.728;4.160;2022-07-04T15:13:11;35.20;46.40
57636;DHT22;43465;50.728;4.160;2022-07-04T15:15:38;35.20;46.60
57636;DHT22;43465;50.728;4.160;2022-07-04T15:18:04;35.60;47.00
57636;DHT22;43465;50.728;4.160;2022-07-04T15:20:29;35.50;45.20
57636;DHT22;43465;50.728;4.160;2022-07-04T15:23:13;35.10;45.70
57636;DHT22;43465;50.728;4.160;2022-07-04T15:25:58;35.00;43.90
57636;DHT22;43465;50.728;4.160;2022-07-04T15:28:24;35.20;45.60
57636;DHT22;43465;50.728;4.160;2022-07-04T15:30:49;35.20;45.10
57636;DHT22;43465;50.728;4.160;2022-07-04T15:33:15;35.20;44.60
57636;DHT22;43465;50.728;4.160;2022-07-04T15:35:44;35.40;44.20
57636;DHT22;43465;50.728;4.160;2022-07-04T15:38:11;35.50;44.60
57636;DHT22;43465;50.728;4.160;2022-07-04T15:40:37;35.80;44.40
57636;DHT22;43465;50.728;4.160;2022-07-04T15:43:03;36.10;43.50
57636;DHT22;43465;50.728;4.160;2022-07-04T15:45:29;36.20;43.40
57636;DHT22;43465;50.728;4.160;2022-07-04T15:47:54;36.50;43.60
57636;DHT22;43465;50.728;4.160;2022-07-04T15:50:20;36.30;43.00
57636;DHT22;43465;50.728;4.160;2022-07-04T15:52:47;36.20;43.80
57636;DHT22;43465;50.728;4.160;2022-07-04T15:55:13;35.60;44.90
57636;DHT22;43465;50.728;4.160;2022-07-04T15:57:39;34.70;44.50
57636;DHT22;43465;50.728;4.160;2022-07-04T16:00:05;33.30;44.60
57636;DHT22;43465;50.728;4.160;2022-07-04T16:02:31;32.10;49.40
57636;DHT22;43465;50.728;4.160;2022-07-04T16:04:56;31.60;50.50